createdAt,value
2017-08-11T00:00:54.480Z,11.10
2017-08-11T00:03:21.916Z,9.77
2017-08-11T00:05:49.823Z,11.73
2017-08-11T00:08:17.380Z,19.23
2017-08-11T00:10:44.796Z,15.00
2017-08-11T00:13:12.996Z,9.50
2017-08-11T00:15:41.198Z,12.80
2017-08-11T00:18:08.636Z,12.17
2017-08-11T00:20:36.068Z,10.13
2017-08-11T00:23:03.496Z,12.17
2017-08-11T00:25:30.932Z,10.37
2017-08-11T00:27:58.361Z,12.93
2017-08-11T00:30:25.800Z,8.33
2017-08-11T00:32:54.006Z,10.00
2017-08-11T00:35:21.432Z,11.03
2017-08-11T00:37:49.624Z,9.20
2017-08-11T00:40:17.057Z,9.73
2017-08-11T00:42:45.249Z,11.93
2017-08-11T00:45:13.300Z,13.40
2017-08-11T00:47:40.852Z,16.70
2017-08-11T00:50:09.062Z,11.30
2017-08-11T00:52:36.489Z,17.03
2017-08-11T00:55:03.920Z,10.27
2017-08-11T00:57:31.360Z,13.50
2017-08-11T00:59:58.787Z,11.33
2017-08-11T01:02:26.233Z,10.93
2017-08-11T01:04:54.423Z,12.37
2017-08-11T01:07:21.856Z,12.27
2017-08-11T01:09:50.056Z,13.07
2017-08-11T01:12:17.487Z,14.10
2017-08-11T01:14:45.685Z,12.77
2017-08-11T01:17:13.133Z,15.47
2017-08-11T01:19:40.561Z,17.17
2017-08-11T01:22:08.769Z,13.90
2017-08-11T01:24:36.205Z,11.90
2017-08-11T01:27:04.405Z,13.10
2017-08-11T01:29:31.832Z,13.23
2017-08-11T01:32:00.038Z,12.73
2017-08-11T01:34:27.463Z,14.17
2017-08-11T01:36:55.668Z,18.13
2017-08-11T01:39:23.105Z,15.43
2017-08-11T01:41:51.317Z,19.63
2017-08-11T01:44:18.752Z,15.27
2017-08-11T01:46:47.877Z,18.83
2017-08-11T01:49:15.384Z,12.70
2017-08-11T01:51:43.620Z,14.40
2017-08-11T01:54:11.057Z,19.53
2017-08-11T01:56:38.497Z,17.03
2017-08-11T01:59:05.925Z,16.00
2017-08-11T02:01:34.128Z,15.80
2017-08-11T02:04:01.565Z,18.50
2017-08-11T02:06:29.772Z,17.17
2017-08-11T02:08:57.210Z,19.97
2017-08-11T02:11:24.640Z,24.10
2017-08-11T02:13:52.853Z,14.70
2017-08-11T02:16:21.006Z,15.20
2017-08-11T02:18:48.520Z,12.90
2017-08-11T02:21:15.953Z,20.67
2017-08-11T02:23:44.033Z,12.50
2017-08-11T02:26:11.469Z,16.00
2017-08-11T02:28:38.909Z,13.63
2017-08-11T02:31:06.341Z,18.23
2017-08-11T02:33:33.781Z,19.23
2017-08-11T02:36:01.208Z,21.93
2017-08-11T02:38:28.660Z,24.30
2017-08-11T02:40:56.840Z,17.63
2017-08-11T02:43:25.112Z,17.00
2017-08-11T02:45:52.541Z,18.40
2017-08-11T02:48:20.749Z,16.87
2017-08-11T02:50:48.177Z,17.97
2017-08-11T02:53:15.618Z,22.50
2017-08-11T02:55:43.816Z,18.23
2017-08-11T02:58:11.312Z,17.20
2017-08-11T03:00:38.752Z,19.13
2017-08-11T03:03:06.189Z,22.37
2017-08-11T03:05:33.631Z,20.20
2017-08-11T03:08:01.875Z,23.03
2017-08-11T03:10:29.319Z,24.50
2017-08-11T03:12:56.749Z,26.47
2017-08-11T03:15:24.181Z,23.57
2017-08-11T03:17:51.621Z,22.13
2017-08-11T03:20:19.830Z,24.37
2017-08-11T03:22:47.261Z,19.10
2017-08-11T03:25:15.473Z,21.17
2017-08-11T03:27:42.900Z,22.10
2017-08-11T03:30:10.345Z,21.93
2017-08-11T03:32:38.549Z,25.80
2017-08-11T03:35:05.985Z,21.53
2017-08-11T03:37:33.412Z,22.30
2017-08-11T03:40:00.848Z,23.40
2017-08-11T03:42:28.286Z,20.63
2017-08-11T03:44:55.734Z,24.03
2017-08-11T03:47:23.169Z,24.43
2017-08-11T03:49:50.617Z,21.40
2017-08-11T03:52:18.815Z,25.33
2017-08-11T03:54:46.261Z,28.33
2017-08-11T03:57:13.688Z,29.60
2017-08-11T03:59:41.132Z,23.57
2017-08-11T04:02:08.562Z,29.60
2017-08-11T04:04:35.996Z,27.80
2017-08-11T04:07:03.438Z,25.40
2017-08-11T04:09:31.445Z,24.17
2017-08-11T04:11:58.881Z,27.37
2017-08-11T04:14:26.312Z,30.43
2017-08-11T04:16:54.530Z,26.13
2017-08-11T04:19:21.960Z,28.53
2017-08-11T04:21:49.402Z,26.73
2017-08-11T04:24:17.605Z,26.20
2017-08-11T04:26:45.044Z,25.90
2017-08-11T04:29:12.482Z,24.90
2017-08-11T04:31:40.689Z,34.70
2017-08-11T04:34:08.124Z,28.17
2017-08-11T04:36:36.328Z,24.00
2017-08-11T04:39:03.785Z,31.23
2017-08-11T04:41:31.225Z,30.83
2017-08-11T04:43:58.655Z,34.57
2017-08-11T04:46:26.866Z,27.93
2017-08-11T04:48:54.296Z,21.63
2017-08-11T04:51:22.501Z,32.03
2017-08-11T04:53:49.924Z,37.67
2017-08-11T04:56:18.124Z,36.00
2017-08-11T04:58:45.561Z,28.50
2017-08-11T05:01:13.762Z,28.93
2017-08-11T05:03:41.197Z,29.50
2017-08-11T05:06:09.413Z,30.33
2017-08-11T05:08:36.853Z,33.67
2017-08-11T05:11:04.293Z,36.47
2017-08-11T05:13:32.497Z,45.53
2017-08-11T05:15:59.923Z,40.57
2017-08-11T05:18:27.364Z,44.63
2017-08-11T05:20:55.569Z,40.17
2017-08-11T05:23:23.000Z,34.50
2017-08-11T05:25:51.201Z,44.57
2017-08-11T05:28:18.649Z,42.67
2017-08-11T05:30:46.188Z,36.83
2017-08-11T05:33:14.397Z,40.80
2017-08-11T05:35:41.816Z,43.03
2017-08-11T05:38:10.020Z,36.93
2017-08-11T05:40:37.449Z,41.13
2017-08-11T05:43:05.664Z,46.83
2017-08-11T05:45:33.176Z,45.83
2017-08-11T05:48:01.388Z,35.50
2017-08-11T05:50:28.812Z,33.03
2017-08-11T05:52:57.021Z,36.80
2017-08-11T05:55:24.461Z,41.13
2017-08-11T05:57:51.898Z,35.63
2017-08-11T06:00:20.104Z,37.60
2017-08-11T06:02:47.532Z,37.67
2017-08-11T06:05:15.732Z,36.60
2017-08-11T06:07:43.194Z,36.10
2017-08-11T06:10:10.616Z,36.17
2017-08-11T06:12:38.889Z,41.87
2017-08-11T06:15:06.356Z,36.97
2017-08-11T06:17:34.556Z,40.20
2017-08-11T06:20:01.993Z,44.00
2017-08-11T06:22:31.145Z,51.57
2017-08-11T06:24:58.584Z,37.07
2017-08-11T06:27:27.016Z,43.80
2017-08-11T06:29:56.319Z,40.87
2017-08-11T06:32:24.932Z,35.57
2017-08-11T06:34:52.378Z,39.83
2017-08-11T06:37:20.582Z,39.50
2017-08-11T06:39:48.037Z,37.13
2017-08-11T06:42:15.465Z,41.57
2017-08-11T06:44:42.901Z,39.93
2017-08-11T06:47:11.103Z,38.17
2017-08-11T06:49:38.541Z,43.77
2017-08-11T06:52:06.808Z,37.90
2017-08-11T06:54:35.012Z,37.20
2017-08-11T06:57:02.504Z,41.40
2017-08-11T06:59:29.948Z,44.70
2017-08-11T07:01:57.580Z,43.67
2017-08-11T07:04:25.024Z,41.23
2017-08-11T07:06:53.220Z,43.50
2017-08-11T07:09:20.705Z,41.33
2017-08-11T07:11:48.139Z,49.07
2017-08-11T07:14:15.569Z,51.60
2017-08-11T07:16:43.768Z,50.80
2017-08-11T07:19:11.228Z,45.70
2017-08-11T07:21:38.676Z,52.53
2017-08-11T07:24:06.105Z,51.40
2017-08-11T07:26:34.393Z,53.53
2017-08-11T07:29:02.589Z,51.10
2017-08-11T07:31:30.641Z,50.63
2017-08-11T07:33:58.839Z,51.83
2017-08-11T07:36:27.550Z,46.07
2017-08-11T07:38:55.051Z,45.87
2017-08-11T07:41:24.269Z,52.80
2017-08-11T07:43:53.421Z,46.93
2017-08-11T07:46:20.848Z,53.87
2017-08-11T07:48:48.286Z,52.50
2017-08-11T07:51:15.728Z,47.13
2017-08-11T07:53:43.936Z,57.70
2017-08-11T07:56:11.378Z,46.93
2017-08-11T07:58:38.805Z,41.27
2017-08-11T08:01:07.013Z,50.40
2017-08-11T08:03:34.513Z,55.10
2017-08-11T08:06:01.940Z,51.30
2017-08-11T08:08:29.372Z,51.57
2017-08-11T08:10:56.808Z,60.97
2017-08-11T08:13:25.057Z,56.50
2017-08-11T08:15:52.496Z,61.73
2017-08-11T08:18:19.925Z,49.90
2017-08-11T08:20:47.360Z,54.70
2017-08-11T08:23:15.568Z,50.17
2017-08-11T08:25:43.001Z,54.13
2017-08-11T08:28:10.436Z,54.60
2017-08-11T08:30:38.456Z,53.93
2017-08-11T08:33:05.902Z,50.00
2017-08-11T08:35:33.338Z,51.97
2017-08-11T08:38:00.780Z,58.07
2017-08-11T08:40:28.984Z,51.53
2017-08-11T08:42:56.421Z,47.00
2017-08-11T08:45:24.627Z,46.23
2017-08-11T08:47:52.061Z,53.30
2017-08-11T08:50:19.492Z,50.27
2017-08-11T08:52:47.701Z,52.03
2017-08-11T08:55:15.138Z,56.47
2017-08-11T08:57:43.341Z,51.33
2017-08-11T09:00:10.777Z,47.10
2017-08-11T09:02:38.271Z,53.20
2017-08-11T09:05:05.681Z,54.13
2017-08-11T09:07:33.900Z,53.23
2017-08-11T09:10:01.337Z,46.43
2017-08-11T09:12:28.977Z,50.90
2017-08-11T09:14:57.225Z,51.83
2017-08-11T09:17:24.680Z,44.17
2017-08-11T09:19:52.108Z,38.60
2017-08-11T09:22:19.660Z,42.53
2017-08-11T09:24:59.125Z,45.10
2017-08-11T09:27:38.549Z,41.27
2017-08-11T09:30:17.952Z,36.00
2017-08-11T09:32:57.428Z,26.23
2017-08-11T09:35:45.504Z,28.60
2017-08-11T09:38:13.712Z,27.33
2017-08-11T09:40:41.154Z,22.17
2017-08-11T09:43:09.365Z,23.80
2017-08-11T09:45:36.809Z,15.90
2017-08-11T09:48:04.241Z,15.67
2017-08-11T09:50:31.705Z,16.23
2017-08-11T09:52:59.676Z,14.70
2017-08-11T09:55:27.877Z,13.33
2017-08-11T09:57:55.305Z,13.87
2017-08-11T10:00:22.752Z,14.50
2017-08-11T10:02:50.948Z,13.47
2017-08-11T10:05:18.389Z,13.53
2017-08-11T10:07:45.836Z,11.07
2017-08-11T10:10:14.044Z,12.70
2017-08-11T10:12:41.468Z,11.53
2017-08-11T10:15:09.673Z,7.60
2017-08-11T10:17:37.100Z,3.97
2017-08-11T10:20:05.297Z,4.40
2017-08-11T10:22:32.729Z,5.27
2017-08-11T10:25:00.924Z,2.93
2017-08-11T10:27:28.348Z,3.97
2017-08-11T10:29:55.801Z,3.13
2017-08-11T10:32:23.225Z,3.60
2017-08-11T10:34:50.654Z,3.73
2017-08-11T10:37:18.089Z,4.30
2017-08-11T10:39:45.515Z,2.90
2017-08-11T10:42:12.949Z,4.10
2017-08-11T10:44:40.378Z,3.10
2017-08-11T10:47:09.787Z,2.30
2017-08-11T10:49:37.425Z,3.70
2017-08-11T10:52:05.684Z,4.20
2017-08-11T10:54:33.113Z,2.53
2017-08-11T10:57:00.941Z,2.30
2017-08-11T10:59:28.356Z,2.93
2017-08-11T11:01:55.789Z,2.33
2017-08-11T11:04:23.212Z,3.10
2017-08-11T11:06:50.643Z,2.80
2017-08-11T11:09:18.847Z,9.70
2017-08-11T11:11:46.280Z,2.23
2017-08-11T11:14:14.472Z,2.30
2017-08-11T11:16:41.909Z,2.93
2017-08-11T11:19:10.108Z,2.43
2017-08-11T11:21:37.545Z,1.70
2017-08-11T11:24:05.744Z,3.43
2017-08-11T11:26:33.170Z,3.43
2017-08-11T11:29:01.369Z,1.77
2017-08-11T11:31:28.793Z,1.97
2017-08-11T11:33:56.228Z,11.77
2017-08-11T11:36:23.665Z,2.80
2017-08-11T11:38:51.096Z,2.43
2017-08-11T11:41:18.541Z,2.00
2017-08-11T11:43:46.728Z,2.97
2017-08-11T11:46:14.152Z,2.10
2017-08-11T11:48:42.357Z,3.07
2017-08-11T11:51:09.784Z,3.77
2017-08-11T11:53:37.985Z,5.57
2017-08-11T11:56:05.419Z,2.20
2017-08-11T11:58:33.616Z,2.00
2017-08-11T12:01:01.041Z,2.00
2017-08-11T12:03:29.241Z,1.83
2017-08-11T12:05:56.709Z,1.83
2017-08-11T12:08:24.140Z,3.37
2017-08-11T12:10:52.343Z,2.07
2017-08-11T12:13:19.778Z,2.20
2017-08-11T12:15:47.972Z,3.23
2017-08-11T12:18:15.400Z,1.67
2017-08-11T12:20:43.597Z,1.60
2017-08-11T12:23:11.025Z,4.07
2017-08-11T12:25:39.230Z,3.37
2017-08-11T12:28:06.652Z,4.20
2017-08-11T12:30:34.865Z,2.47
2017-08-11T12:33:02.297Z,1.50
2017-08-11T12:35:30.498Z,1.50
2017-08-11T12:37:57.921Z,2.47
2017-08-11T12:40:25.349Z,1.93
2017-08-11T12:42:52.779Z,4.10
2017-08-11T12:45:20.218Z,2.43
2017-08-11T12:47:47.645Z,2.90
2017-08-11T12:50:15.864Z,10.10
2017-08-11T12:52:43.284Z,2.90
2017-08-11T12:55:11.481Z,4.50
2017-08-11T12:57:38.909Z,4.93
2017-08-11T13:00:07.109Z,3.13
2017-08-11T13:02:34.537Z,3.60
2017-08-11T13:05:02.732Z,5.40
2017-08-11T13:07:30.163Z,3.03
2017-08-11T13:09:57.597Z,7.50
2017-08-11T13:12:25.208Z,3.00
2017-08-11T13:14:52.657Z,4.93
2017-08-11T13:17:20.852Z,3.20
2017-08-11T13:19:48.284Z,7.83
2017-08-11T13:22:16.477Z,5.83
2017-08-11T13:24:43.908Z,7.60
2017-08-11T13:27:12.113Z,8.40
2017-08-11T13:29:39.548Z,4.27
2017-08-11T13:32:07.740Z,6.87
2017-08-11T13:34:35.170Z,6.47
2017-08-11T13:37:02.601Z,6.83
2017-08-11T13:39:30.016Z,5.20
2017-08-11T13:41:59.414Z,4.47
2017-08-11T13:44:27.589Z,9.93
2017-08-11T13:46:55.020Z,4.20
2017-08-11T13:49:23.220Z,8.70
2017-08-11T13:51:50.653Z,8.83
2017-08-11T13:54:18.856Z,4.60
2017-08-11T13:56:46.376Z,7.77
2017-08-11T13:59:14.574Z,5.60
2017-08-11T14:01:42.014Z,4.17
2017-08-11T14:04:09.461Z,5.43
2017-08-11T14:06:37.660Z,7.60
2017-08-11T14:09:05.093Z,7.80
2017-08-11T14:11:33.288Z,6.53
2017-08-11T14:14:00.722Z,6.07
2017-08-11T14:16:28.153Z,8.60
2017-08-11T14:18:55.594Z,5.40
2017-08-11T14:21:23.096Z,5.10
2017-08-11T14:23:57.016Z,5.30
2017-08-11T14:26:24.448Z,5.50
2017-08-11T14:28:51.892Z,11.50
2017-08-11T14:31:19.329Z,8.33
2017-08-11T14:33:46.761Z,5.13
2017-08-11T14:36:14.290Z,11.13
2017-08-11T14:38:42.490Z,7.53
2017-08-11T14:41:09.917Z,9.17
2017-08-11T14:43:37.352Z,7.60
2017-08-11T14:46:04.784Z,7.47
2017-08-11T14:48:32.213Z,5.90
2017-08-11T14:50:59.649Z,5.70
2017-08-11T14:53:27.852Z,5.17
2017-08-11T14:55:55.284Z,10.37
2017-08-11T14:58:23.479Z,8.07
2017-08-11T15:00:50.912Z,11.20
2017-08-11T15:03:19.112Z,9.83
2017-08-11T15:05:46.552Z,12.93
2017-08-11T15:08:14.752Z,11.07
2017-08-11T15:10:42.176Z,10.53
2017-08-11T15:13:10.464Z,12.10
2017-08-11T15:15:38.658Z,9.80
2017-08-11T15:18:06.089Z,11.60
2017-08-11T15:20:34.453Z,8.50
2017-08-11T15:23:01.921Z,12.90
2017-08-11T15:25:30.129Z,11.70
2017-08-11T15:27:57.561Z,11.80
2017-08-11T15:30:25.054Z,13.03
2017-08-11T15:32:52.460Z,11.20
2017-08-11T15:35:20.665Z,14.73
2017-08-11T15:37:48.117Z,11.30
2017-08-11T15:40:16.300Z,13.57
2017-08-11T15:42:43.727Z,9.90
2017-08-11T15:45:11.929Z,13.50
2017-08-11T15:47:39.361Z,15.90
2017-08-11T15:50:06.806Z,16.03
2017-08-11T15:52:34.232Z,12.43
2017-08-11T15:55:01.679Z,14.07
2017-08-11T15:57:29.100Z,15.00
2017-08-11T15:59:56.536Z,19.60
2017-08-11T16:02:24.741Z,17.40
2017-08-11T16:04:52.213Z,13.17
2017-08-11T16:07:19.640Z,18.70
2017-08-11T16:09:47.077Z,13.30
2017-08-11T16:12:14.507Z,13.00
2017-08-11T16:14:41.948Z,16.67
2017-08-11T16:17:09.381Z,16.73
2017-08-11T16:19:36.820Z,18.03
2017-08-11T16:22:05.012Z,14.40
2017-08-11T16:24:32.457Z,19.60
2017-08-11T16:27:00.651Z,21.00
2017-08-11T16:29:28.125Z,17.67
2017-08-11T16:31:55.549Z,19.00
2017-08-11T16:34:22.985Z,19.77
2017-08-11T16:36:51.193Z,20.47
2017-08-11T16:39:18.634Z,24.20
2017-08-11T16:41:46.842Z,21.17
2017-08-11T16:44:15.276Z,22.13
2017-08-11T16:46:43.485Z,22.03
2017-08-11T16:49:10.908Z,20.73
2017-08-11T16:51:39.108Z,25.67
2017-08-11T16:54:06.545Z,24.27
2017-08-11T16:56:34.768Z,21.83
2017-08-11T16:59:02.202Z,23.53
2017-08-11T17:01:29.643Z,24.17
2017-08-11T17:03:57.078Z,23.70
2017-08-11T17:06:24.513Z,28.03
2017-08-11T17:08:51.950Z,23.47
2017-08-11T17:11:19.392Z,27.77
2017-08-11T17:13:46.825Z,23.70
2017-08-11T17:16:15.828Z,21.27
2017-08-11T17:18:43.261Z,21.97
2017-08-11T17:21:11.465Z,26.73
2017-08-11T17:23:38.892Z,25.33
2017-08-11T17:26:07.097Z,26.30
2017-08-11T17:28:34.529Z,29.67
2017-08-11T17:31:02.757Z,25.17
2017-08-11T17:33:30.185Z,23.00
2017-08-11T17:35:57.614Z,25.00
2017-08-11T17:38:25.813Z,24.47
2017-08-11T17:40:53.261Z,24.87
2017-08-11T17:43:20.693Z,24.10
2017-08-11T17:45:48.905Z,25.20
2017-08-11T17:48:16.333Z,19.63
2017-08-11T17:50:43.780Z,24.50
2017-08-11T17:53:11.225Z,22.37
2017-08-11T17:55:38.647Z,19.47
2017-08-11T17:58:06.081Z,25.13
2017-08-11T18:00:33.521Z,20.70
2017-08-11T18:03:01.732Z,28.23
2017-08-11T18:05:29.174Z,23.07
2017-08-11T18:07:56.614Z,22.50
2017-08-11T18:10:24.809Z,20.30
2017-08-11T18:12:52.314Z,26.03
2017-08-11T18:15:19.748Z,23.40
2017-08-11T18:17:47.194Z,25.63
2017-08-11T18:22:38.496Z,23.53
2017-08-11T18:25:06.695Z,27.33
2017-08-11T18:27:34.137Z,20.63
2017-08-11T18:30:02.687Z,22.53
2017-08-11T18:32:30.109Z,24.67
2017-08-11T18:34:57.557Z,22.63
2017-08-11T18:37:25.089Z,20.83
2017-08-11T18:39:52.516Z,29.20
2017-08-11T18:42:20.738Z,26.90
2017-08-11T18:44:48.181Z,22.43
2017-08-11T18:47:15.737Z,23.60
2017-08-11T18:49:43.179Z,23.90
2017-08-11T18:52:11.386Z,23.00
2017-08-11T18:54:38.827Z,25.70
2017-08-11T18:57:06.249Z,23.43
2017-08-11T18:59:34.476Z,23.07
2017-08-11T19:02:01.913Z,23.43
2017-08-11T19:04:29.358Z,24.03
2017-08-11T19:06:57.587Z,27.60
2017-08-11T19:09:25.050Z,25.00
2017-08-11T19:11:52.536Z,27.63
2017-08-11T19:14:20.753Z,26.70
2017-08-11T19:16:48.194Z,32.37
2017-08-11T19:19:15.657Z,26.37
2017-08-11T19:21:43.090Z,24.30
2017-08-11T19:24:11.331Z,30.37
2017-08-11T19:26:38.760Z,35.23
2017-08-11T19:29:06.195Z,33.63
2017-08-11T19:31:33.637Z,27.57
2017-08-11T19:34:01.073Z,27.83
2017-08-11T19:36:28.531Z,31.37
2017-08-11T19:38:56.742Z,29.23
2017-08-11T19:41:24.176Z,30.90
2017-08-11T19:43:52.384Z,35.57
2017-08-11T19:46:19.826Z,26.90
2017-08-11T19:49:09.386Z,29.43
2017-08-11T19:51:37.597Z,29.60
2017-08-11T19:54:05.069Z,37.93
2017-08-11T19:56:32.527Z,32.00
2017-08-11T19:59:00.025Z,42.07
2017-08-11T20:01:28.253Z,39.63
2017-08-11T20:03:55.689Z,37.43
2017-08-11T20:06:23.137Z,39.47
2017-08-11T20:08:50.577Z,35.27
2017-08-11T20:11:18.877Z,40.20
2017-08-11T20:13:46.322Z,34.60
2017-08-11T20:16:13.752Z,32.80
2017-08-11T20:18:42.037Z,42.40
2017-08-11T20:21:09.469Z,42.60
2017-08-11T20:23:36.956Z,41.80
2017-08-11T20:26:05.209Z,41.00
2017-08-11T20:28:32.650Z,46.60
2017-08-11T20:31:00.086Z,42.13
2017-08-11T20:33:27.536Z,52.43
2017-08-11T20:35:54.969Z,44.13
2017-08-11T20:38:24.267Z,58.63
2017-08-11T20:40:52.457Z,71.53
2017-08-11T20:43:19.888Z,50.27
2017-08-11T20:45:48.188Z,63.00
2017-08-11T20:48:15.640Z,48.87
2017-08-11T20:50:43.083Z,56.63
2017-08-11T20:53:11.385Z,56.27
2017-08-11T20:55:38.842Z,58.60
2017-08-11T20:58:06.368Z,50.80
2017-08-11T21:00:34.582Z,51.67
2017-08-11T21:03:02.013Z,50.20
2017-08-11T21:05:29.458Z,52.40
2017-08-11T21:07:57.736Z,52.27
2017-08-11T21:10:25.164Z,53.80
2017-08-11T21:12:52.640Z,48.10
2017-08-11T21:15:20.076Z,48.63
2017-08-11T21:17:47.508Z,49.63
2017-08-11T21:20:15.020Z,50.50
2017-08-11T21:22:43.222Z,53.80
2017-08-11T21:25:10.657Z,50.60
2017-08-11T21:27:38.862Z,56.40
2017-08-11T21:30:06.301Z,57.00
2017-08-11T21:32:33.733Z,48.93
2017-08-11T21:35:01.178Z,52.50
2017-08-11T21:37:28.628Z,46.90
2017-08-11T21:39:56.061Z,42.83
2017-08-11T21:42:23.507Z,45.90
2017-08-11T21:44:50.945Z,60.00
2017-08-11T21:47:18.409Z,50.60
2017-08-11T21:49:45.841Z,47.00
2017-08-11T21:52:14.056Z,47.73
2017-08-11T21:54:41.488Z,54.23
2017-08-11T21:57:08.933Z,45.70
2017-08-11T21:59:36.368Z,47.90
2017-08-11T22:02:03.836Z,41.00
2017-08-11T22:04:32.041Z,43.30
2017-08-11T22:06:59.485Z,44.43
2017-08-11T22:09:26.920Z,54.97
2017-08-11T22:11:55.127Z,53.07
2017-08-11T22:14:22.557Z,40.23
2017-08-11T22:16:50.773Z,44.17
2017-08-11T22:19:18.212Z,47.90
2017-08-11T22:21:45.640Z,41.70
2017-08-11T22:24:13.849Z,38.27
2017-08-11T22:26:41.280Z,35.77
2017-08-11T22:29:09.492Z,38.43
2017-08-11T22:31:36.924Z,38.73
2017-08-11T22:34:04.369Z,40.67
2017-08-11T22:36:32.655Z,42.87
2017-08-11T22:39:00.852Z,40.90
2017-08-11T22:41:28.276Z,36.00
2017-08-11T22:43:56.482Z,38.47
2017-08-11T22:46:23.921Z,40.77
2017-08-11T22:48:51.359Z,36.60
2017-08-11T22:51:19.553Z,42.53
2017-08-11T22:53:47.138Z,36.37
2017-08-11T22:56:14.564Z,38.20
2017-08-11T22:58:42.005Z,35.50
2017-08-11T23:01:10.209Z,42.67
2017-08-11T23:03:37.646Z,37.63
2017-08-11T23:06:05.852Z,34.07
2017-08-11T23:08:33.277Z,34.53
2017-08-11T23:11:01.476Z,58.67
2017-08-11T23:13:28.910Z,32.73
2017-08-11T23:15:57.118Z,39.80
2017-08-11T23:18:24.539Z,40.30
2017-08-11T23:20:51.977Z,37.90
2017-08-11T23:23:20.189Z,34.63
2017-08-11T23:25:47.641Z,35.40
2017-08-11T23:28:15.843Z,35.30
2017-08-11T23:30:43.281Z,34.40
2017-08-11T23:33:10.713Z,35.63
2017-08-11T23:35:38.928Z,36.27
2017-08-11T23:38:06.365Z,35.30
2017-08-11T23:40:33.805Z,33.37
2017-08-11T23:43:02.000Z,39.13
2017-08-11T23:45:29.446Z,43.37
2017-08-11T23:47:56.877Z,44.43
2017-08-11T23:50:25.086Z,35.53
2017-08-11T23:52:52.525Z,38.73
2017-08-11T23:55:20.726Z,41.63
2017-08-11T23:57:48.165Z,39.83
